Terminal Aerodrome Forecast
Issued by NWS

Home | Current Version | Previous Version | Text Only | Print | Product List | Glossary On
Versions: 1 2 3 4 5 6 7 8 9 10 11 12 13 14 15
000
FTUS45 KMSO 272340
TAFSMN
TAF
KSMN 272340Z 2800/2824 36008KT P6SM VCSH BKN060
     FM280200 VRB03KT P6SM SCT100
     FM281800 36006KT P6SM SCT120
      AMD LTD TO CLD VIS AND WIND=

USA.gov is the U.S. government's official web portal to all federal, state and local government web resources and services.